Time;durP1;ratioP1;P1;durP2;ratioP2;P2;SDS_P1;SDS_P2;PMS_P1;PMS_P2;Temp;Humidity;BMP_temperature;BMP_pressure;BME280_temperature;BME280_humidity;BME280_pressure;Samples;Min_cycle;Max_cycle;Signal;HPM_P1;HPM_P2
2022/08/10 00:02:35;;;;;;;4.47;3.37;;;15.90;74.20;;;;;;4994712;28;20941;-66
2022/08/10 00:05:02;;;;;;;5.50;4.83;;;15.90;74.70;;;;;;4995553;28;20452;-66
2022/08/10 00:07:29;;;;;;;10.70;4.70;;;15.80;74.70;;;;;;4994459;28;20494;-66
2022/08/10 00:09:56;;;;;;;4.40;3.27;;;15.70;74.70;;;;;;4994331;28;20483;-67
2022/08/10 00:12:23;;;;;;;5.93;4.00;;;15.70;75.10;;;;;;5014029;28;20501;-66
2022/08/10 00:14:50;;;;;;;4.40;3.97;;;15.70;75.40;;;;;;5013834;28;20451;-66
2022/08/10 00:17:17;;;;;;;7.53;3.97;;;15.70;75.80;;;;;;4994897;28;20444;-65
2022/08/10 00:19:46;;;;;;;7.40;3.00;;;15.70;75.90;;;;;;4994127;28;20448;-66
2022/08/10 00:22:13;;;;;;;5.47;3.40;;;15.70;75.90;;;;;;5011100;28;20937;-66
2022/08/10 00:24:40;;;;;;;6.33;3.17;;;15.70;76.90;;;;;;5013334;28;20481;-65
2022/08/10 00:27:07;;;;;;;3.83;3.30;;;15.70;75.90;;;;;;5012055;28;20439;-67
2022/08/10 00:29:34;;;;;;;4.70;4.23;;;15.70;76.00;;;;;;4994237;28;20567;-66
2022/08/10 00:32:01;;;;;;;5.10;3.10;;;15.70;76.10;;;;;;5011098;28;20509;-65
2022/08/10 00:34:28;;;;;;;3.93;3.13;;;15.70;76.00;;;;;;5013505;28;20470;-66
2022/08/10 00:36:57;;;;;;;3.37;3.07;;;15.70;76.20;;;;;;4997611;28;20439;-66
2022/08/10 00:39:24;;;;;;;4.40;3.60;;;15.60;76.60;;;;;;4993969;28;20451;-66
2022/08/10 00:41:51;;;;;;;7.20;4.17;;;15.50;76.80;;;;;;4993912;28;20499;-65
2022/08/10 00:44:18;;;;;;;4.93;3.20;;;15.40;77.10;;;;;;4993949;28;20845;-66
2022/08/10 00:46:45;;;;;;;3.93;3.27;;;15.40;77.40;;;;;;4994423;28;20486;-65
2022/08/10 00:49:13;;;;;;;6.20;4.17;;;15.50;77.90;;;;;;4993517;28;20499;-65
2022/08/10 00:51:41;;;;;;;5.10;3.20;;;15.50;77.90;;;;;;5005360;28;20438;-66
2022/08/10 00:54:10;;;;;;;3.80;3.40;;;15.50;78.50;;;;;;5013351;28;20500;-66
2022/08/10 00:56:37;;;;;;;6.30;3.37;;;15.50;79.10;;;;;;5001791;28;20488;-65
2022/08/10 00:59:04;;;;;;;3.87;3.50;;;15.40;79.20;;;;;;4993551;28;20850;-66
2022/08/10 01:01:31;;;;;;;3.40;3.00;;;15.40;79.20;;;;;;5002773;28;20934;-66
2022/08/10 01:03:58;;;;;;;4.27;3.50;;;15.40;79.20;;;;;;5012983;28;20517;-66
2022/08/10 01:06:32;;;;;;;4.83;3.50;;;15.30;78.90;;;;;;5011145;28;20533;-66
2022/08/10 01:09:06;;;;;;;5.27;3.83;;;15.30;79.30;;;;;;5012870;28;20996;-69
2022/08/10 01:11:43;;;;;;;3.50;3.03;;;15.30;79.60;;;;;;5002188;28;20435;-65
2022/08/10 01:14:20;;;;;;;3.40;3.10;;;15.20;80.10;;;;;;4993419;28;20439;-65
2022/08/10 01:16:53;;;;;;;3.90;3.10;;;15.20;80.30;;;;;;5004585;28;20438;-66
2022/08/10 01:19:36;;;;;;;4.43;4.00;;;15.20;80.60;;;;;;5012932;28;20441;-65
2022/08/10 01:22:31;;;;;;;5.17;3.57;;;15.20;80.90;;;;;;4998818;28;20570;-65
2022/08/10 01:25:16;;;;;;;4.67;3.40;;;15.20;81.90;;;;;;4993034;28;20443;-66
2022/08/10 01:27:55;;;;;;;4.70;3.90;;;15.00;81.40;;;;;;5011073;28;20462;-65
2022/08/10 01:30:27;;;;;;;4.50;3.50;;;14.90;83.00;;;;;;5009601;28;20844;-65
2022/08/10 01:33:03;;;;;;;9.67;4.07;;;14.80;83.00;;;;;;4992947;28;20450;-72
2022/08/10 01:35:36;;;;;;;5.27;4.07;;;14.80;83.30;;;;;;4994983;28;20455;-65
2022/08/10 01:38:08;;;;;;;4.33;3.90;;;14.80;83.00;;;;;;5012424;28;20439;-66
2022/08/10 01:40:41;;;;;;;4.23;3.47;;;14.80;82.50;;;;;;5009122;28;20593;-65
2022/08/10 01:43:10;;;;;;;4.40;4.00;;;14.80;82.70;;;;;;4992970;28;20556;-65
2022/08/10 01:45:45;;;;;;;3.87;3.50;;;14.80;82.60;;;;;;4992446;28;20448;-65
2022/08/10 01:48:29;;;;;;;4.03;3.50;;;14.80;82.60;;;;;;5009950;28;20426;-65
2022/08/10 01:51:03;;;;;;;5.23;3.60;;;14.80;82.40;;;;;;5012300;28;20809;-66
2022/08/10 01:53:40;;;;;;;4.00;3.37;;;14.80;82.60;;;;;;5011537;28;20443;-66
2022/08/10 01:56:09;;;;;;;4.07;3.67;;;14.70;82.90;;;;;;5011971;28;20442;-66
2022/08/10 01:58:38;;;;;;;5.67;3.53;;;14.70;83.70;;;;;;5011709;28;20787;-66
2022/08/10 02:01:09;;;;;;;5.27;4.07;;;14.70;83.60;;;;;;5012184;28;20446;-65
2022/08/10 02:03:38;;;;;;;4.60;3.27;;;14.60;83.50;;;;;;5010760;28;20443;-65
2022/08/10 02:06:08;;;;;;;7.57;4.10;;;14.60;83.10;;;;;;5012417;28;20529;-66
2022/08/10 02:08:36;;;;;;;4.20;3.50;;;14.50;84.70;;;;;;4992896;28;20455;-65
2022/08/10 02:11:05;;;;;;;4.33;3.17;;;14.50;84.70;;;;;;4992733;28;20494;-65
2022/08/10 02:13:33;;;;;;;4.37;3.80;;;14.50;84.10;;;;;;5010651;28;20855;-65
2022/08/10 02:16:02;;;;;;;4.10;3.30;;;14.50;84.30;;;;;;5012147;28;20474;-65
2022/08/10 02:18:34;;;;;;;4.60;3.67;;;14.40;84.00;;;;;;4994551;28;20440;-66
2022/08/10 02:21:04;;;;;;;4.00;3.37;;;14.40;84.70;;;;;;4992358;28;20446;-65
2022/08/10 02:23:35;;;;;;;5.63;3.93;;;14.30;85.40;;;;;;5009412;28;20450;-65
2022/08/10 02:26:04;;;;;;;4.23;3.60;;;14.30;85.70;;;;;;5012165;28;20446;-65
2022/08/10 02:28:35;;;;;;;3.97;3.57;;;14.30;85.70;;;;;;4994528;28;20502;-65
2022/08/10 02:31:06;;;;;;;4.33;3.20;;;14.20;85.70;;;;;;4991513;28;20498;-67
2022/08/10 02:33:37;;;;;;;4.93;3.37;;;14.20;86.10;;;;;;5011176;28;20829;-65
2022/08/10 02:36:07;;;;;;;3.80;3.40;;;14.10;86.20;;;;;;5009122;28;20887;-64
2022/08/10 02:38:38;;;;;;;4.63;4.13;;;14.10;86.00;;;;;;4992249;28;20443;-64
2022/08/10 02:41:14;;;;;;;3.93;3.33;;;14.10;85.90;;;;;;4990887;28;20443;-65
2022/08/10 02:43:48;;;;;;;4.20;3.80;;;14.10;86.90;;;;;;4992430;28;20497;-64
2022/08/10 02:46:25;;;;;;;4.27;3.73;;;14.10;86.50;;;;;;4994772;28;20549;-64
2022/08/10 02:48:59;;;;;;;4.30;3.73;;;14.10;86.40;;;;;;5015536;28;20450;-65
2022/08/10 02:51:32;;;;;;;5.10;3.20;;;14.10;86.50;;;;;;5010800;28;20439;-64
2022/08/10 02:54:05;;;;;;;6.87;4.20;;;14.00;86.10;;;;;;4995889;28;20490;-65
2022/08/10 02:56:38;;;;;;;4.50;3.40;;;14.00;85.50;;;;;;4999378;28;20513;-64
2022/08/10 02:59:10;;;;;;;4.40;3.80;;;14.00;85.70;;;;;;5015517;28;20438;-64
2022/08/10 03:01:42;;;;;;;3.90;3.50;;;14.00;86.00;;;;;;5009940;28;20512;-64
2022/08/10 03:04:16;;;;;;;4.30;3.90;;;14.00;85.80;;;;;;4995404;28;20438;-65
2022/08/10 03:06:47;;;;;;;4.67;3.93;;;14.00;86.00;;;;;;5000558;28;20465;-65
2022/08/10 03:09:17;;;;;;;4.70;3.67;;;13.90;86.30;;;;;;5014883;28;20538;-64
2022/08/10 03:11:45;;;;;;;5.60;4.20;;;13.90;86.20;;;;;;5009830;28;20519;-65
2022/08/10 03:14:16;;;;;;;3.47;3.17;;;13.90;86.10;;;;;;5015087;28;20466;-65
2022/08/10 03:16:44;;;;;;;4.37;3.90;;;13.90;86.40;;;;;;5009847;28;20436;-65
2022/08/10 03:19:14;;;;;;;7.33;3.60;;;13.80;86.60;;;;;;4995537;28;20534;-66
2022/08/10 03:21:43;;;;;;;4.20;3.80;;;13.70;87.30;;;;;;4995946;28;20436;-66
2022/08/10 03:24:11;;;;;;;4.30;3.67;;;13.70;87.40;;;;;;4995408;28;20462;-68
2022/08/10 03:26:39;;;;;;;7.57;4.57;;;13.70;87.30;;;;;;5014767;28;20439;-66
2022/08/10 03:29:07;;;;;;;4.40;3.33;;;13.70;86.70;;;;;;5014875;28;20481;-66
2022/08/10 03:31:35;;;;;;;4.13;3.73;;;13.70;86.70;;;;;;4994834;28;20505;-66
2022/08/10 03:34:04;;;;;;;4.27;3.87;;;13.70;86.40;;;;;;4995320;28;20521;-66
2022/08/10 03:36:32;;;;;;;4.80;4.27;;;13.60;87.50;;;;;;4995022;28;20448;-66
2022/08/10 03:39:00;;;;;;;4.50;4.10;;;13.60;87.80;;;;;;5011730;28;20489;-66
2022/08/10 03:41:31;;;;;;;4.10;3.27;;;13.60;88.10;;;;;;5014784;28;20445;-65
2022/08/10 03:44:01;;;;;;;4.43;4.03;;;13.50;88.30;;;;;;5012311;28;20485;-66
2022/08/10 03:46:29;;;;;;;3.93;3.53;;;13.50;87.70;;;;;;5014083;28;20477;-65
2022/08/10 03:48:58;;;;;;;4.67;4.00;;;13.60;87.40;;;;;;4998017;28;20440;-65
2022/08/10 03:51:27;;;;;;;4.78;3.45;;;13.50;86.80;;;;;;4994659;28;20490;-65
2022/08/10 03:53:57;;;;;;;4.00;3.50;;;13.50;86.60;;;;;;4994462;28;20195;-66
2022/08/10 03:56:25;;;;;;;5.80;4.37;;;13.40;86.80;;;;;;4994946;28;20443;-66
2022/08/10 03:58:53;;;;;;;9.33;3.67;;;13.40;87.10;;;;;;5008136;28;20463;-66
2022/08/10 04:01:22;;;;;;;3.50;3.20;;;13.40;86.80;;;;;;5014350;28;20513;-66
2022/08/10 04:03:49;;;;;;;7.33;5.20;;;13.30;87.20;;;;;;5012307;28;20443;-65
2022/08/10 04:06:16;;;;;;;4.50;4.10;;;13.30;87.80;;;;;;5014799;28;20797;-66
2022/08/10 04:08:44;;;;;;;4.47;4.03;;;13.30;87.80;;;;;;5011288;28;20438;-66
2022/08/10 04:11:13;;;;;;;4.57;4.00;;;13.30;87.90;;;;;;5014356;28;20988;-65
2022/08/10 04:13:40;;;;;;;4.33;3.93;;;13.30;87.80;;;;;;5003199;28;20431;-65
2022/08/10 04:16:07;;;;;;;4.83;4.13;;;13.30;87.80;;;;;;4994985;28;20870;-65
2022/08/10 04:18:35;;;;;;;5.00;4.10;;;13.30;88.80;;;;;;5003765;28;20902;-66
2022/08/10 04:21:06;;;;;;;4.33;3.73;;;13.10;89.50;;;;;;5014288;28;20538;-66
2022/08/10 04:23:36;;;;;;;5.07;4.10;;;13.10;89.90;;;;;;5011375;28;20466;-66
2022/08/10 04:26:04;;;;;;;4.70;4.13;;;13.10;90.10;;;;;;5013538;28;20447;-66
2022/08/10 04:28:34;;;;;;;5.07;4.57;;;13.10;90.20;;;;;;5012172;28;20450;-65
2022/08/10 04:31:03;;;;;;;4.90;4.37;;;13.00;90.30;;;;;;5014125;28;20482;-65
2022/08/10 04:33:31;;;;;;;5.50;4.93;;;13.10;90.60;;;;;;5002654;28;20450;-65
2022/08/10 04:35:59;;;;;;;5.95;4.68;;;13.00;90.80;;;;;;4994500;28;20448;-65
2022/08/10 04:38:33;;;;;;;6.13;4.77;;;13.00;90.90;;;;;;4978447;28;20192;-65
2022/08/10 04:41:01;;;;;;;5.13;4.13;;;13.00;90.80;;;;;;4994236;28;20455;-66
2022/08/10 04:43:28;;;;;;;4.47;3.97;;;13.10;90.60;;;;;;4994176;28;20440;-66
2022/08/10 04:45:57;;;;;;;5.03;4.33;;;13.20;90.60;;;;;;4994065;28;20807;-65
2022/08/10 04:48:25;;;;;;;4.80;4.40;;;13.20;90.80;;;;;;5003175;28;20454;-66
2022/08/10 04:50:52;;;;;;;5.30;4.30;;;13.20;90.80;;;;;;5013879;28;20489;-66
2022/08/10 04:53:19;;;;;;;5.37;4.43;;;13.30;90.70;;;;;;5003504;28;20449;-66
2022/08/10 04:55:46;;;;;;;4.63;3.63;;;13.40;90.80;;;;;;5012021;28;20941;-69
2022/08/10 04:58:14;;;;;;;3.90;3.50;;;13.40;90.80;;;;;;5007737;28;20555;-66
2022/08/10 05:00:41;;;;;;;7.27;4.23;;;13.50;91.00;;;;;;5011481;28;20443;-67
2022/08/10 05:03:12;;;;;;;6.10;4.77;;;13.60;90.90;;;;;;5007811;28;20713;-66
2022/08/10 05:05:47;;;;;;;8.17;3.87;;;13.60;90.90;;;;;;5012051;28;20458;-65
2022/08/10 05:08:13;;;;;;;4.80;4.30;;;13.60;90.70;;;;;;5007251;28;20502;-65
2022/08/10 05:10:41;;;;;;;5.40;4.43;;;13.60;91.00;;;;;;5009476;28;20485;-66
2022/08/10 05:13:07;;;;;;;5.40;4.73;;;13.60;91.60;;;;;;5011812;28;20478;-65
2022/08/10 05:15:35;;;;;;;5.73;4.70;;;13.60;91.60;;;;;;5010718;28;20838;-65
2022/08/10 05:18:02;;;;;;;5.53;4.53;;;13.70;91.20;;;;;;5011095;28;20977;-66
2022/08/10 05:20:31;;;;;;;9.07;6.13;;;13.70;91.10;;;;;;4995259;28;20915;-68
2022/08/10 05:22:58;;;;;;;7.60;5.90;;;13.80;91.10;;;;;;5006692;28;20435;-66
2022/08/10 05:25:25;;;;;;;11.53;9.73;;;13.90;91.20;;;;;;5011425;28;20899;-67
2022/08/10 05:27:52;;;;;;;11.07;8.73;;;14.00;91.70;;;;;;5006153;28;20438;-66
2022/08/10 05:30:21;;;;;;;12.10;7.43;;;14.20;91.90;;;;;;5011582;28;20483;-65
2022/08/10 05:32:49;;;;;;;9.73;6.80;;;14.20;92.10;;;;;;5010534;28;20960;-66
2022/08/10 05:35:16;;;;;;;8.20;6.90;;;14.30;92.30;;;;;;5010872;28;20784;-68
2022/08/10 05:37:47;;;;;;;8.57;6.30;;;14.40;92.20;;;;;;5008547;28;20432;-65
2022/08/10 05:40:14;;;;;;;6.80;5.30;;;14.50;92.10;;;;;;5006921;28;20470;-66
2022/08/10 05:42:42;;;;;;;7.07;6.33;;;14.60;91.90;;;;;;5003261;28;20439;-68
2022/08/10 05:45:21;;;;;;;4.97;4.43;;;14.70;92.00;;;;;;5004564;28;21030;-67
2022/08/10 05:47:49;;;;;;;4.97;4.47;;;14.80;91.80;;;;;;5009411;28;20458;-65
2022/08/10 05:50:17;;;;;;;5.70;5.07;;;15.00;91.60;;;;;;5009143;28;20489;-67
2022/08/10 05:52:46;;;;;;;11.30;5.90;;;15.10;91.80;;;;;;5010724;28;21315;-66
2022/08/10 05:55:13;;;;;;;6.00;5.40;;;15.20;91.80;;;;;;5007528;28;20478;-65
2022/08/10 05:57:41;;;;;;;8.80;5.30;;;15.40;91.80;;;;;;5009437;28;20453;-67
2022/08/10 06:00:11;;;;;;;7.20;5.33;;;15.50;91.80;;;;;;5006991;28;20443;-65
2022/08/10 06:02:42;;;;;;;6.30;5.67;;;15.60;91.80;;;;;;5008963;28;21023;-66
2022/08/10 06:05:11;;;;;;;8.17;5.03;;;15.80;91.80;;;;;;5006584;28;20525;-68
2022/08/10 06:07:42;;;;;;;6.30;5.33;;;15.90;91.80;;;;;;5006729;28;21266;-66
2022/08/10 06:10:15;;;;;;;6.47;5.87;;;16.10;91.90;;;;;;5006125;28;20497;-66
2022/08/10 06:12:46;;;;;;;5.90;5.00;;;16.20;91.90;;;;;;5006011;28;20454;-66
2022/08/10 06:15:16;;;;;;;5.90;5.10;;;16.40;91.90;;;;;;5008365;28;20530;-66
2022/08/10 06:17:43;;;;;;;6.47;5.50;;;16.50;91.50;;;;;;5004545;28;20469;-66
2022/08/10 06:20:15;;;;;;;6.47;5.40;;;16.60;91.00;;;;;;5007955;28;20443;-67
2022/08/10 06:22:42;;;;;;;6.23;5.63;;;16.70;91.20;;;;;;5013224;28;20533;-67
2022/08/10 06:25:10;;;;;;;5.90;5.40;;;16.80;91.40;;;;;;5010876;28;20439;-65
2022/08/10 06:27:40;;;;;;;8.37;6.70;;;16.90;91.30;;;;;;5010566;28;20435;-67
2022/08/10 06:30:09;;;;;;;6.00;5.40;;;17.10;91.30;;;;;;5007490;28;20537;-66
2022/08/10 06:32:37;;;;;;;6.97;6.03;;;17.30;91.10;;;;;;5003011;28;20442;-66
2022/08/10 06:35:07;;;;;;;6.20;4.63;;;17.40;90.90;;;;;;4996871;28;20530;-66
2022/08/10 06:37:45;;;;;;;6.77;4.90;;;17.60;90.40;;;;;;4997276;28;20440;-66
2022/08/10 06:40:13;;;;;;;4.73;4.27;;;17.70;89.80;;;;;;4996827;28;20443;-66
2022/08/10 06:42:46;;;;;;;5.90;4.27;;;17.90;88.90;;;;;;4997289;28;20439;-66
2022/08/10 06:45:16;;;;;;;6.00;3.90;;;18.00;88.40;;;;;;4996965;28;20902;-66
2022/08/10 06:47:51;;;;;;;5.70;4.50;;;18.10;88.20;;;;;;4997079;28;20541;-66
2022/08/10 06:50:21;;;;;;;7.10;4.83;;;18.20;88.10;;;;;;4996921;28;20856;-67
2022/08/10 06:52:52;;;;;;;5.30;4.40;;;18.40;88.10;;;;;;4996886;28;20915;-66
2022/08/10 06:55:22;;;;;;;5.30;4.40;;;18.60;88.00;;;;;;4997109;28;20878;-66
2022/08/10 06:57:51;;;;;;;4.60;3.90;;;18.70;87.20;;;;;;4996811;28;20474;-66
2022/08/10 07:00:19;;;;;;;4.43;3.80;;;18.90;86.80;;;;;;4996821;28;20534;-66
2022/08/10 07:02:51;;;;;;;6.47;4.00;;;19.00;86.90;;;;;;4996962;28;20478;-66
2022/08/10 07:05:22;;;;;;;8.77;4.57;;;19.20;86.90;;;;;;4996533;28;20434;-66
2022/08/10 07:07:51;;;;;;;6.80;4.00;;;19.30;86.00;;;;;;4996863;28;20471;-66
2022/08/10 07:10:20;;;;;;;5.10;4.40;;;19.40;85.00;;;;;;4996636;28;20772;-67
2022/08/10 07:12:48;;;;;;;7.43;4.03;;;19.60;84.90;;;;;;4996789;28;20447;-66
2022/08/10 07:15:19;;;;;;;8.10;3.80;;;19.70;85.90;;;;;;4996583;28;20483;-66
2022/08/10 07:17:47;;;;;;;6.37;4.83;;;19.80;84.20;;;;;;4996640;28;20447;-67
2022/08/10 07:20:17;;;;;;;7.33;4.30;;;20.00;84.30;;;;;;4996790;28;20478;-66
2022/08/10 07:22:47;;;;;;;7.07;3.83;;;20.10;83.50;;;;;;4996272;28;20437;-67
2022/08/10 07:25:19;;;;;;;4.50;3.60;;;20.20;83.00;;;;;;4996511;28;20861;-67
2022/08/10 07:27:48;;;;;;;5.20;3.40;;;20.30;82.90;;;;;;4996214;28;20432;-67
2022/08/10 07:30:17;;;;;;;4.30;3.90;;;20.50;82.50;;;;;;4996508;28;20496;-67
2022/08/10 07:32:47;;;;;;;4.40;3.97;;;20.70;81.60;;;;;;4995329;28;20584;-67
2022/08/10 07:35:16;;;;;;;4.90;3.90;;;20.80;81.80;;;;;;4996252;28;20540;-67
2022/08/10 07:37:46;;;;;;;6.23;3.03;;;20.90;80.50;;;;;;4996312;28;20540;-67
2022/08/10 07:40:15;;;;;;;8.03;3.97;;;21.00;78.30;;;;;;4996519;28;20522;-67
2022/08/10 07:42:45;;;;;;;5.00;3.20;;;21.10;79.20;;;;;;4996032;28;20545;-67
2022/08/10 07:45:12;;;;;;;4.50;3.43;;;21.30;79.30;;;;;;4996101;28;20446;-67
2022/08/10 07:47:44;;;;;;;5.23;3.47;;;21.40;79.40;;;;;;4995890;28;20474;-68
2022/08/10 07:50:14;;;;;;;5.67;3.50;;;21.60;79.70;;;;;;4996117;28;20482;-67
2022/08/10 07:52:42;;;;;;;5.37;3.63;;;21.70;79.50;;;;;;4995530;28;20826;-67
2022/08/10 07:55:13;;;;;;;5.30;2.83;;;21.90;78.30;;;;;;4995597;28;20937;-67
2022/08/10 07:57:42;;;;;;;3.40;2.50;;;22.00;78.20;;;;;;4995799;28;20526;-67
2022/08/10 08:00:11;;;;;;;3.90;2.70;;;22.20;78.40;;;;;;4995464;28;20916;-67
2022/08/10 08:02:44;;;;;;;5.40;3.13;;;22.30;77.50;;;;;;4995697;28;20448;-67
2022/08/10 08:05:12;;;;;;;3.97;2.93;;;22.50;75.70;;;;;;4995662;28;20521;-67
2022/08/10 08:07:40;;;;;;;5.13;2.70;;;22.60;75.30;;;;;;4995545;28;20526;-67
2022/08/10 08:10:11;;;;;;;4.00;2.53;;;22.80;73.30;;;;;;4995631;28;20523;-67
2022/08/10 08:12:40;;;;;;;3.97;2.57;;;22.90;72.70;;;;;;4995589;28;20574;-67
2022/08/10 08:15:09;;;;;;;3.10;1.90;;;23.10;68.80;;;;;;4995552;28;21116;-67
2022/08/10 08:17:38;;;;;;;3.53;2.17;;;23.20;68.70;;;;;;4995501;28;20444;-67
2022/08/10 08:20:09;;;;;;;3.70;2.40;;;23.30;67.80;;;;;;4995398;28;20851;-67
2022/08/10 08:22:36;;;;;;;4.40;2.53;;;23.40;69.00;;;;;;4995401;28;20490;-67
2022/08/10 08:25:04;;;;;;;3.60;2.30;;;23.60;65.30;;;;;;4995399;28;20439;-67
2022/08/10 08:27:33;;;;;;;6.40;2.43;;;23.70;66.10;;;;;;4995075;28;20439;-67
2022/08/10 08:30:01;;;;;;;3.00;2.20;;;23.80;65.10;;;;;;4995068;28;20479;-67
2022/08/10 08:32:31;;;;;;;3.00;2.10;;;23.90;65.30;;;;;;4995147;28;20487;-67
2022/08/10 08:35:02;;;;;;;6.40;1.93;;;24.10;61.80;;;;;;4995157;28;20475;-67
2022/08/10 08:37:33;;;;;;;5.27;2.50;;;24.20;62.40;;;;;;4994938;28;20440;-67
2022/08/10 08:40:00;;;;;;;5.57;1.90;;;24.30;61.40;;;;;;4994969;28;20444;-67
2022/08/10 08:42:54;;;;;;;8.20;1.87;;;24.30;59.40;;;;;;4995164;28;20482;-67
2022/08/10 08:45:28;;;;;;;4.57;2.13;;;24.50;58.70;;;;;;4994937;28;20475;-67
2022/08/10 08:48:21;;;;;;;3.10;1.80;;;24.50;57.50;;;;;;4994671;28;20482;-67
2022/08/10 08:51:01;;;;;;;3.13;2.00;;;24.60;57.10;;;;;;4994944;28;20840;-67
2022/08/10 08:53:44;;;;;;;3.30;2.07;;;24.70;57.70;;;;;;4994691;28;20497;-67
2022/08/10 08:56:23;;;;;;;2.97;2.00;;;24.80;56.80;;;;;;4994987;28;20440;-66
2022/08/10 08:59:08;;;;;;;4.70;1.80;;;24.90;55.90;;;;;;4994619;28;20443;-67
2022/08/10 09:01:53;;;;;;;3.40;1.87;;;25.00;56.20;;;;;;4994536;28;20534;-67
2022/08/10 09:04:59;;;;;;;3.83;1.80;;;25.10;56.60;;;;;;4994667;28;20475;-69
2022/08/10 09:07:57;;;;;;;4.37;1.90;;;25.20;55.50;;;;;;4974060;28;20479;-67
2022/08/10 09:10:35;;;;;;;4.50;1.97;;;25.40;56.60;;;;;;4994234;28;20431;-66
2022/08/10 09:13:09;;;;;;;4.47;1.90;;;25.40;55.50;;;;;;4994408;28;20518;-67
2022/08/10 09:15:43;;;;;;;3.83;1.60;;;25.50;53.30;;;;;;4994305;28;20448;-66
2022/08/10 09:18:20;;;;;;;2.73;1.77;;;25.60;53.50;;;;;;4994595;28;20443;-70
2022/08/10 09:20:51;;;;;;;3.20;2.23;;;25.70;51.50;;;;;;4994451;28;20449;-67
2022/08/10 09:23:28;;;;;;;3.10;2.07;;;25.70;50.90;;;;;;4993966;28;20498;-66
2022/08/10 09:26:01;;;;;;;6.53;2.00;;;25.70;50.60;;;;;;4994244;28;20478;-67
2022/08/10 09:28:36;;;;;;;3.03;1.43;;;25.80;50.10;;;;;;4994266;28;20502;-66
2022/08/10 09:31:05;;;;;;;4.80;1.57;;;25.90;49.90;;;;;;4994225;28;20527;-66
2022/08/10 09:33:44;;;;;;;3.40;1.60;;;26.00;51.10;;;;;;4994108;28;20467;-66
2022/08/10 09:36:28;;;;;;;4.43;2.00;;;26.20;49.60;;;;;;4993924;28;20479;-66
2022/08/10 09:39:05;;;;;;;3.33;2.00;;;26.20;49.10;;;;;;4994078;28;20474;-67
2022/08/10 09:41:41;;;;;;;3.30;1.60;;;26.30;49.00;;;;;;4993576;28;20954;-65
2022/08/10 09:44:21;;;;;;;2.40;1.43;;;26.40;48.10;;;;;;4993989;28;20447;-65
2022/08/10 09:47:05;;;;;;;4.63;2.10;;;26.50;48.60;;;;;;4993764;28;20502;-66
2022/08/10 09:49:47;;;;;;;7.00;2.17;;;26.50;46.60;;;;;;4993873;28;20471;-65
2022/08/10 09:52:21;;;;;;;2.43;1.70;;;26.60;46.80;;;;;;4993927;28;20582;-65
2022/08/10 09:55:03;;;;;;;2.93;2.00;;;26.50;45.40;;;;;;4993640;28;20518;-67
2022/08/10 09:57:39;;;;;;;3.80;1.90;;;26.50;47.40;;;;;;4993854;28;20486;-69
2022/08/10 10:00:09;;;;;;;4.30;1.80;;;26.50;45.80;;;;;;4993872;28;20583;-65
2022/08/10 10:02:51;;;;;;;3.30;1.50;;;26.60;47.30;;;;;;4993716;28;20448;-65
2022/08/10 10:05:36;;;;;;;9.23;2.00;;;26.70;47.40;;;;;;4993686;28;20440;-66
2022/08/10 10:08:11;;;;;;;3.87;1.60;;;26.80;46.40;;;;;;4993383;28;20783;-66
2022/08/10 10:10:52;;;;;;;4.17;1.80;;;26.80;46.50;;;;;;4993893;28;20996;-65
2022/08/10 10:13:30;;;;;;;6.80;1.60;;;26.90;46.00;;;;;;4993755;28;20519;-66
2022/08/10 10:16:22;;;;;;;3.23;1.77;;;27.00;47.50;;;;;;4993669;28;20475;-65
2022/08/10 10:18:57;;;;;;;5.67;1.33;;;27.10;45.80;;;;;;4993637;28;20479;-65
2022/08/10 10:21:34;;;;;;;4.40;1.57;;;27.20;46.80;;;;;;4993958;28;20537;-67
2022/08/10 10:24:13;;;;;;;2.73;1.73;;;27.30;47.10;;;;;;4993356;28;20444;-66
2022/08/10 10:26:49;;;;;;;3.00;1.63;;;27.30;46.10;;;;;;4993350;28;20534;-65
2022/08/10 10:29:42;;;;;;;3.10;1.40;;;27.40;46.80;;;;;;4993600;28;20502;-66
2022/08/10 10:32:18;;;;;;;4.03;1.57;;;27.40;47.20;;;;;;4993422;28;20902;-66
2022/08/10 10:34:50;;;;;;;4.03;1.50;;;27.50;45.70;;;;;;4993264;28;20454;-65
2022/08/10 10:37:20;;;;;;;2.17;1.30;;;27.60;45.60;;;;;;4993263;28;20459;-66
2022/08/10 10:39:51;;;;;;;6.00;2.27;;;27.70;45.90;;;;;;4993415;28;20471;-66
2022/08/10 10:42:29;;;;;;;2.87;1.50;;;27.70;44.20;;;;;;4993555;28;20475;-66
2022/08/10 10:45:11;;;;;;;2.67;1.40;;;27.80;44.60;;;;;;4993178;28;20490;-66
2022/08/10 10:47:59;;;;;;;3.00;1.30;;;27.90;45.30;;;;;;4993252;28;20884;-65
2022/08/10 10:50:34;;;;;;;3.70;1.60;;;28.00;43.80;;;;;;4993140;28;20487;-66
2022/08/10 10:53:09;;;;;;;3.27;1.40;;;28.10;44.70;;;;;;4993057;28;20577;-68
2022/08/10 10:55:48;;;;;;;2.50;1.50;;;28.20;43.40;;;;;;4993329;28;20530;-66
2022/08/10 10:58:19;;;;;;;8.67;2.10;;;28.20;45.40;;;;;;4996814;28;20441;-66
2022/08/10 11:00:55;;;;;;;2.57;1.53;;;28.20;44.40;;;;;;5012723;28;20872;-66
2022/08/10 11:03:34;;;;;;;2.87;1.40;;;28.30;45.20;;;;;;5004022;28;20431;-67
2022/08/10 11:06:10;;;;;;;5.73;1.57;;;28.40;42.60;;;;;;4993510;28;20450;-66
2022/08/10 11:08:42;;;;;;;3.97;1.43;;;28.40;43.00;;;;;;5013821;28;20489;-66
2022/08/10 11:11:14;;;;;;;5.30;1.20;;;28.30;43.70;;;;;;5005258;28;20447;-66
2022/08/10 11:13:48;;;;;;;3.60;2.07;;;28.40;44.50;;;;;;4996693;28;20487;-66
2022/08/10 11:16:24;;;;;;;2.70;1.63;;;28.50;41.10;;;;;;5005257;28;20469;-66
2022/08/10 11:18:58;;;;;;;5.83;1.93;;;28.40;40.40;;;;;;5012174;28;20435;-66
2022/08/10 11:21:45;;;;;;;3.60;1.50;;;28.30;42.10;;;;;;5011173;28;20952;-66
2022/08/10 11:24:21;;;;;;;3.13;1.60;;;28.30;40.90;;;;;;5011192;28;20446;-68
2022/08/10 11:26:50;;;;;;;3.47;1.40;;;28.30;41.10;;;;;;5008676;28;20507;-66
2022/08/10 11:29:24;;;;;;;3.63;1.70;;;28.30;41.50;;;;;;5007568;28;20466;-67
2022/08/10 11:32:01;;;;;;;4.30;1.90;;;28.40;43.70;;;;;;4996208;28;20467;-66
2022/08/10 11:34:35;;;;;;;3.17;1.60;;;28.50;42.00;;;;;;4996331;28;20515;-66
2022/08/10 11:37:15;;;;;;;3.13;1.30;;;28.50;41.40;;;;;;5010925;28;20447;-66
2022/08/10 11:39:51;;;;;;;6.97;1.37;;;28.60;41.40;;;;;;5007305;28;20478;-70
2022/08/10 11:42:30;;;;;;;6.47;1.53;;;28.60;41.30;;;;;;5013855;28;20924;-68
2022/08/10 11:45:02;;;;;;;3.10;1.87;;;28.60;41.50;;;;;;5013891;28;20430;-66
2022/08/10 11:47:38;;;;;;;3.23;1.40;;;28.70;41.60;;;;;;5009228;28;20553;-68
2022/08/10 11:50:13;;;;;;;3.83;1.60;;;28.60;39.40;;;;;;5013840;28;21008;-67
2022/08/10 11:52:53;;;;;;;4.83;1.90;;;28.60;40.30;;;;;;5012235;28;20820;-67
2022/08/10 11:55:21;;;;;;;2.70;1.60;;;28.60;40.30;;;;;;5013947;28;20502;-67
2022/08/10 11:57:51;;;;;;;2.70;1.80;;;28.60;41.40;;;;;;5013340;28;20435;-70
2022/08/10 12:00:18;;;;;;;5.57;1.90;;;28.60;39.70;;;;;;5012934;28;20474;-67
2022/08/10 12:02:50;;;;;;;2.83;1.50;;;28.60;41.50;;;;;;5012908;28;20517;-66
2022/08/10 12:05:23;;;;;;;5.70;1.63;;;28.60;40.10;;;;;;5009552;28;20495;-67
2022/08/10 12:07:53;;;;;;;4.40;1.60;;;28.70;40.70;;;;;;5011690;28;20478;-67
2022/08/10 12:10:23;;;;;;;3.07;1.33;;;28.80;39.40;;;;;;5010004;28;20511;-67
2022/08/10 12:12:55;;;;;;;2.63;1.13;;;28.80;41.30;;;;;;5012706;28;20571;-67
2022/08/10 12:15:27;;;;;;;3.67;1.33;;;28.80;38.30;;;;;;5011984;28;20439;-66
2022/08/10 12:18:01;;;;;;;2.50;1.33;;;28.60;38.50;;;;;;5013237;28;20482;-67
2022/08/10 12:20:32;;;;;;;2.47;1.20;;;28.60;37.40;;;;;;5009847;28;20458;-67
2022/08/10 12:23:07;;;;;;;3.60;1.23;;;28.60;38.10;;;;;;5006552;28;20461;-67
2022/08/10 12:25:40;;;;;;;2.87;1.30;;;28.60;38.30;;;;;;5012494;28;20529;-66
2022/08/10 12:28:13;;;;;;;4.50;1.47;;;28.60;38.20;;;;;;5013061;28;20504;-67
2022/08/10 12:30:47;;;;;;;4.10;1.20;;;28.60;38.80;;;;;;5011381;28;20478;-67
2022/08/10 12:33:22;;;;;;;2.10;1.10;;;28.60;37.10;;;;;;5012058;28;21042;-66
2022/08/10 12:35:55;;;;;;;3.13;1.13;;;28.60;37.00;;;;;;5012868;28;20473;-68
2022/08/10 12:38:31;;;;;;;3.30;1.43;;;28.60;36.50;;;;;;5012566;28;20438;-66
2022/08/10 12:41:01;;;;;;;4.00;1.40;;;28.60;36.70;;;;;;5012355;28;20840;-67
2022/08/10 12:43:34;;;;;;;3.20;1.30;;;28.60;37.10;;;;;;5007861;28;20451;-66
2022/08/10 12:46:09;;;;;;;4.10;1.27;;;28.50;37.60;;;;;;5010564;28;20479;-67
2022/08/10 12:48:48;;;;;;;4.43;1.53;;;28.50;37.10;;;;;;5006342;28;20446;-66
2022/08/10 12:51:18;;;;;;;3.13;1.33;;;28.50;39.30;;;;;;5012586;28;20439;-67
2022/08/10 12:53:51;;;;;;;3.70;1.50;;;28.50;40.70;;;;;;5012462;28;20576;-67
2022/08/10 12:56:24;;;;;;;3.07;1.73;;;28.50;40.70;;;;;;5008127;28;20443;-67
2022/08/10 12:58:51;;;;;;;3.20;1.27;;;28.50;40.40;;;;;;5007839;28;20532;-68
2022/08/10 13:01:19;;;;;;;3.07;1.17;;;28.50;41.40;;;;;;5009334;28;20446;-67
2022/08/10 13:03:52;;;;;;;4.33;1.63;;;28.50;40.40;;;;;;5008484;28;20528;-66
2022/08/10 13:06:21;;;;;;;2.93;1.30;;;28.40;39.40;;;;;;5012608;28;20439;-69
2022/08/10 13:11:37;;;;;;;4.70;1.20;;;28.40;41.00;;;;;;5006070;28;20442;-68
2022/08/10 13:14:10;;;;;;;3.30;1.00;;;28.50;41.20;;;;;;5010623;28;20478;-67